sensor_id;sensor_type;location;lat;lon;timestamp;P1;durP1;ratioP1;P2;durP2;ratioP2
67041;SDS011;53949;47.790;18.750;2022-07-22T00:19:54;4.55;;;2.12;;
67041;SDS011;53949;47.790;18.750;2022-07-22T00:23:28;2.77;;;2.20;;
67041;SDS011;53949;47.790;18.750;2022-07-22T00:53:02;5.07;;;2.60;;
67041;SDS011;53949;47.790;18.750;2022-07-22T01:08:05;7.35;;;3.30;;
67041;SDS011;53949;47.790;18.750;2022-07-22T01:11:14;3.83;;;2.50;;
67041;SDS011;53949;47.790;18.750;2022-07-22T01:14:19;4.15;;;2.70;;
67041;SDS011;53949;47.790;18.750;2022-07-22T01:17:22;5.60;;;3.10;;
67041;SDS011;53949;47.790;18.750;2022-07-22T01:20:32;8.40;;;3.30;;
67041;SDS011;53949;47.790;18.750;2022-07-22T01:28:17;7.90;;;3.58;;
67041;SDS011;53949;47.790;18.750;2022-07-22T01:31:38;7.07;;;3.35;;
67041;SDS011;53949;47.790;18.750;2022-07-22T01:34:42;6.50;;;3.72;;
67041;SDS011;53949;47.790;18.750;2022-07-22T01:42:10;3.83;;;3.50;;
67041;SDS011;53949;47.790;18.750;2022-07-22T01:45:15;3.97;;;3.58;;
67041;SDS011;53949;47.790;18.750;2022-07-22T01:48:25;5.65;;;3.90;;
67041;SDS011;53949;47.790;18.750;2022-07-22T01:51:33;8.30;;;3.90;;
67041;SDS011;53949;47.790;18.750;2022-07-22T01:54:36;5.62;;;3.72;;
67041;SDS011;53949;47.790;18.750;2022-07-22T01:57:39;4.90;;;3.67;;
67041;SDS011;53949;47.790;18.750;2022-07-22T02:00:45;6.87;;;3.95;;
67041;SDS011;53949;47.790;18.750;2022-07-22T02:03:50;6.40;;;4.03;;
67041;SDS011;53949;47.790;18.750;2022-07-22T02:06:55;9.20;;;4.07;;
67041;SDS011;53949;47.790;18.750;2022-07-22T02:10:07;6.57;;;3.90;;
67041;SDS011;53949;47.790;18.750;2022-07-22T02:13:12;6.15;;;4.07;;
67041;SDS011;53949;47.790;18.750;2022-07-22T02:16:15;7.17;;;4.17;;
67041;SDS011;53949;47.790;18.750;2022-07-22T02:19:24;5.22;;;3.92;;
67041;SDS011;53949;47.790;18.750;2022-07-22T02:22:29;5.28;;;4.28;;
67041;SDS011;53949;47.790;18.750;2022-07-22T02:25:36;6.10;;;4.20;;
67041;SDS011;53949;47.790;18.750;2022-07-22T02:28:45;5.78;;;4.30;;
67041;SDS011;53949;47.790;18.750;2022-07-22T02:47:51;6.57;;;4.80;;
67041;SDS011;53949;47.790;18.750;2022-07-22T02:51:12;5.47;;;4.97;;
67041;SDS011;53949;47.790;18.750;2022-07-22T02:54:16;6.53;;;5.68;;
67041;SDS011;53949;47.790;18.750;2022-07-22T02:57:20;9.40;;;5.20;;
67041;SDS011;53949;47.790;18.750;2022-07-22T03:17:05;6.18;;;5.20;;
67041;SDS011;53949;47.790;18.750;2022-07-22T05:10:14;9.75;;;5.15;;
67041;SDS011;53949;47.790;18.750;2022-07-22T05:17:52;7.90;;;5.10;;
67041;SDS011;53949;47.790;18.750;2022-07-22T05:21:06;9.18;;;5.40;;
67041;SDS011;53949;47.790;18.750;2022-07-22T05:24:13;9.93;;;5.65;;
67041;SDS011;53949;47.790;18.750;2022-07-22T05:32:20;7.30;;;5.12;;
67041;SDS011;53949;47.790;18.750;2022-07-22T05:35:28;8.00;;;5.20;;
67041;SDS011;53949;47.790;18.750;2022-07-22T05:43:30;13.75;;;6.82;;
67041;SDS011;53949;47.790;18.750;2022-07-22T05:46:35;15.73;;;6.15;;
67041;SDS011;53949;47.790;18.750;2022-07-22T05:49:39;8.55;;;5.53;;
67041;SDS011;53949;47.790;18.750;2022-07-22T05:52:49;13.55;;;5.70;;
67041;SDS011;53949;47.790;18.750;2022-07-22T05:59:38;13.18;;;5.60;;
67041;SDS011;53949;47.790;18.750;2022-07-22T06:02:45;7.80;;;6.18;;
67041;SDS011;53949;47.790;18.750;2022-07-22T06:09:57;13.35;;;5.78;;
67041;SDS011;53949;47.790;18.750;2022-07-22T06:13:05;13.32;;;6.05;;
67041;SDS011;53949;47.790;18.750;2022-07-22T06:16:08;11.55;;;5.97;;
67041;SDS011;53949;47.790;18.750;2022-07-22T06:19:15;12.32;;;6.25;;
67041;SDS011;53949;47.790;18.750;2022-07-22T06:22:34;11.98;;;5.50;;
67041;SDS011;53949;47.790;18.750;2022-07-22T06:25:40;8.90;;;5.75;;
67041;SDS011;53949;47.790;18.750;2022-07-22T06:29:06;13.88;;;6.50;;
67041;SDS011;53949;47.790;18.750;2022-07-22T06:32:12;10.35;;;6.62;;
67041;SDS011;53949;47.790;18.750;2022-07-22T06:39:54;7.90;;;5.47;;
67041;SDS011;53949;47.790;18.750;2022-07-22T06:43:28;8.80;;;6.32;;
67041;SDS011;53949;47.790;18.750;2022-07-22T07:03:19;10.30;;;6.65;;
67041;SDS011;53949;47.790;18.750;2022-07-22T07:06:37;11.60;;;7.40;;
67041;SDS011;53949;47.790;18.750;2022-07-22T07:09:42;9.23;;;6.47;;
67041;SDS011;53949;47.790;18.750;2022-07-22T07:12:47;12.52;;;6.28;;
67041;SDS011;53949;47.790;18.750;2022-07-22T07:15:53;11.18;;;6.45;;
67041;SDS011;53949;47.790;18.750;2022-07-22T07:18:58;8.23;;;6.03;;
67041;SDS011;53949;47.790;18.750;2022-07-22T07:22:04;10.10;;;7.25;;
67041;SDS011;53949;47.790;18.750;2022-07-22T07:25:08;10.90;;;6.40;;
67041;SDS011;53949;47.790;18.750;2022-07-22T07:28:23;8.23;;;6.70;;
67041;SDS011;53949;47.790;18.750;2022-07-22T07:31:27;9.73;;;6.00;;
67041;SDS011;53949;47.790;18.750;2022-07-22T07:37:55;7.62;;;6.22;;
67041;SDS011;53949;47.790;18.750;2022-07-22T07:40:58;8.85;;;6.32;;
67041;SDS011;53949;47.790;18.750;2022-07-22T07:44:01;8.33;;;5.80;;
67041;SDS011;53949;47.790;18.750;2022-07-22T07:47:06;16.35;;;6.35;;
67041;SDS011;53949;47.790;18.750;2022-07-22T08:02:55;7.28;;;6.57;;
67041;SDS011;53949;47.790;18.750;2022-07-22T08:05:59;10.68;;;6.50;;
67041;SDS011;53949;47.790;18.750;2022-07-22T08:09:04;9.02;;;6.55;;
67041;SDS011;53949;47.790;18.750;2022-07-22T08:12:08;6.75;;;6.03;;
67041;SDS011;53949;47.790;18.750;2022-07-22T08:15:12;11.20;;;6.15;;
67041;SDS011;53949;47.790;18.750;2022-07-22T08:18:16;8.77;;;6.40;;
67041;SDS011;53949;47.790;18.750;2022-07-22T08:21:19;7.85;;;6.62;;
67041;SDS011;53949;47.790;18.750;2022-07-22T08:27:26;10.85;;;6.85;;
67041;SDS011;53949;47.790;18.750;2022-07-22T08:30:30;8.25;;;6.90;;
67041;SDS011;53949;47.790;18.750;2022-07-22T08:33:33;11.40;;;6.70;;
67041;SDS011;53949;47.790;18.750;2022-07-22T08:36:37;9.32;;;5.80;;
67041;SDS011;53949;47.790;18.750;2022-07-22T08:39:40;11.25;;;6.28;;
67041;SDS011;53949;47.790;18.750;2022-07-22T08:42:45;9.82;;;5.78;;
67041;SDS011;53949;47.790;18.750;2022-07-22T08:45:49;9.30;;;5.87;;
67041;SDS011;53949;47.790;18.750;2022-07-22T08:48:53;15.77;;;6.35;;
67041;SDS011;53949;47.790;18.750;2022-07-22T08:51:58;6.87;;;5.53;;
67041;SDS011;53949;47.790;18.750;2022-07-22T08:58:06;8.27;;;5.68;;
67041;SDS011;53949;47.790;18.750;2022-07-22T09:01:11;7.90;;;5.80;;
67041;SDS011;53949;47.790;18.750;2022-07-22T09:04:15;8.07;;;5.93;;
67041;SDS011;53949;47.790;18.750;2022-07-22T09:15:58;7.50;;;5.47;;
67041;SDS011;53949;47.790;18.750;2022-07-22T09:19:02;15.85;;;5.80;;
67041;SDS011;53949;47.790;18.750;2022-07-22T09:22:06;8.02;;;5.62;;
67041;SDS011;53949;47.790;18.750;2022-07-22T09:28:39;10.27;;;5.95;;
67041;SDS011;53949;47.790;18.750;2022-07-22T09:32:06;8.32;;;5.37;;
67041;SDS011;53949;47.790;18.750;2022-07-22T09:35:11;10.70;;;5.32;;
67041;SDS011;53949;47.790;18.750;2022-07-22T09:38:17;8.90;;;5.50;;
67041;SDS011;53949;47.790;18.750;2022-07-22T09:41:22;12.65;;;6.00;;
67041;SDS011;53949;47.790;18.750;2022-07-22T09:44:25;8.88;;;5.60;;
67041;SDS011;53949;47.790;18.750;2022-07-22T09:47:29;12.20;;;5.83;;
67041;SDS011;53949;47.790;18.750;2022-07-22T09:50:41;13.48;;;6.25;;
67041;SDS011;53949;47.790;18.750;2022-07-22T09:53:45;12.30;;;6.55;;
67041;SDS011;53949;47.790;18.750;2022-07-22T09:56:48;8.10;;;5.75;;
67041;SDS011;53949;47.790;18.750;2022-07-22T09:59:53;9.95;;;5.62;;
67041;SDS011;53949;47.790;18.750;2022-07-22T10:02:58;7.28;;;5.60;;
67041;SDS011;53949;47.790;18.750;2022-07-22T10:06:05;6.47;;;5.78;;
67041;SDS011;53949;47.790;18.750;2022-07-22T10:09:19;12.80;;;6.03;;
67041;SDS011;53949;47.790;18.750;2022-07-22T10:12:36;9.88;;;5.90;;
67041;SDS011;53949;47.790;18.750;2022-07-22T10:15:58;6.47;;;5.80;;
67041;SDS011;53949;47.790;18.750;2022-07-22T10:27:49;15.18;;;5.82;;
67041;SDS011;53949;47.790;18.750;2022-07-22T10:31:39;12.55;;;5.75;;
67041;SDS011;53949;47.790;18.750;2022-07-22T10:34:42;6.28;;;5.62;;
67041;SDS011;53949;47.790;18.750;2022-07-22T10:38:10;12.50;;;6.00;;
67041;SDS011;53949;47.790;18.750;2022-07-22T10:41:36;8.90;;;5.97;;
67041;SDS011;53949;47.790;18.750;2022-07-22T10:45:08;9.25;;;6.05;;
67041;SDS011;53949;47.790;18.750;2022-07-22T10:59:19;10.20;;;5.93;;
67041;SDS011;53949;47.790;18.750;2022-07-22T11:02:28;7.90;;;6.32;;
67041;SDS011;53949;47.790;18.750;2022-07-22T11:05:32;9.32;;;5.75;;
67041;SDS011;53949;47.790;18.750;2022-07-22T11:08:39;10.85;;;5.78;;
67041;SDS011;53949;47.790;18.750;2022-07-22T11:11:45;6.12;;;5.32;;
67041;SDS011;53949;47.790;18.750;2022-07-22T11:14:51;12.90;;;6.05;;
67041;SDS011;53949;47.790;18.750;2022-07-22T11:17:57;9.63;;;5.97;;
67041;SDS011;53949;47.790;18.750;2022-07-22T11:21:08;6.47;;;5.72;;
67041;SDS011;53949;47.790;18.750;2022-07-22T11:24:17;6.60;;;5.70;;
67041;SDS011;53949;47.790;18.750;2022-07-22T11:27:22;7.87;;;6.20;;
67041;SDS011;53949;47.790;18.750;2022-07-22T11:30:27;9.88;;;5.90;;
67041;SDS011;53949;47.790;18.750;2022-07-22T11:33:30;8.43;;;5.32;;
67041;SDS011;53949;47.790;18.750;2022-07-22T11:36:33;11.27;;;5.93;;
67041;SDS011;53949;47.790;18.750;2022-07-22T11:39:38;6.82;;;5.50;;
67041;SDS011;53949;47.790;18.750;2022-07-22T11:42:42;9.55;;;5.37;;
67041;SDS011;53949;47.790;18.750;2022-07-22T11:45:57;6.37;;;5.45;;
67041;SDS011;53949;47.790;18.750;2022-07-22T11:49:00;7.22;;;5.43;;
67041;SDS011;53949;47.790;18.750;2022-07-22T11:52:05;11.75;;;5.62;;
67041;SDS011;53949;47.790;18.750;2022-07-22T11:55:15;9.38;;;5.62;;
67041;SDS011;53949;47.790;18.750;2022-07-22T11:58:41;8.13;;;5.60;;
67041;SDS011;53949;47.790;18.750;2022-07-22T12:01:44;9.23;;;5.10;;
67041;SDS011;53949;47.790;18.750;2022-07-22T12:04:54;8.85;;;5.05;;
67041;SDS011;53949;47.790;18.750;2022-07-22T12:08:17;7.15;;;4.78;;
67041;SDS011;53949;47.790;18.750;2022-07-22T12:11:21;5.15;;;4.72;;
67041;SDS011;53949;47.790;18.750;2022-07-22T12:14:31;5.25;;;4.30;;
67041;SDS011;53949;47.790;18.750;2022-07-22T12:17:36;5.50;;;4.57;;
67041;SDS011;53949;47.790;18.750;2022-07-22T12:20:44;7.37;;;5.05;;
67041;SDS011;53949;47.790;18.750;2022-07-22T12:24:08;7.53;;;4.60;;
67041;SDS011;53949;47.790;18.750;2022-07-22T12:27:15;11.07;;;4.93;;
67041;SDS011;53949;47.790;18.750;2022-07-22T12:30:32;5.95;;;5.20;;
67041;SDS011;53949;47.790;18.750;2022-07-22T12:33:35;11.82;;;5.00;;
67041;SDS011;53949;47.790;18.750;2022-07-22T12:36:43;5.90;;;5.22;;
67041;SDS011;53949;47.790;18.750;2022-07-22T12:43:06;5.10;;;4.67;;
67041;SDS011;53949;47.790;18.750;2022-07-22T12:46:10;10.13;;;4.75;;
67041;SDS011;53949;47.790;18.750;2022-07-22T12:49:15;8.93;;;5.12;;
67041;SDS011;53949;47.790;18.750;2022-07-22T12:52:22;6.37;;;4.70;;
67041;SDS011;53949;47.790;18.750;2022-07-22T12:55:26;6.40;;;4.70;;
67041;SDS011;53949;47.790;18.750;2022-07-22T12:58:30;10.60;;;5.07;;
67041;SDS011;53949;47.790;18.750;2022-07-22T13:01:33;6.30;;;4.50;;
67041;SDS011;53949;47.790;18.750;2022-07-22T13:08:59;6.45;;;4.53;;
67041;SDS011;53949;47.790;18.750;2022-07-22T13:12:02;7.97;;;4.50;;
67041;SDS011;53949;47.790;18.750;2022-07-22T13:18:08;5.55;;;4.22;;
67041;SDS011;53949;47.790;18.750;2022-07-22T13:24:14;8.05;;;4.12;;
67041;SDS011;53949;47.790;18.750;2022-07-22T13:31:16;6.55;;;3.80;;
67041;SDS011;53949;47.790;18.750;2022-07-22T13:34:19;6.30;;;3.58;;
67041;SDS011;53949;47.790;18.750;2022-07-22T13:37:25;6.25;;;3.95;;
67041;SDS011;53949;47.790;18.750;2022-07-22T13:40:29;6.55;;;3.80;;
67041;SDS011;53949;47.790;18.750;2022-07-22T13:43:33;4.55;;;3.20;;
67041;SDS011;53949;47.790;18.750;2022-07-22T13:46:36;4.10;;;3.17;;
67041;SDS011;53949;47.790;18.750;2022-07-22T13:49:39;7.93;;;3.10;;
67041;SDS011;53949;47.790;18.750;2022-07-22T13:52:43;5.97;;;3.20;;
67041;SDS011;53949;47.790;18.750;2022-07-22T13:55:55;6.75;;;3.10;;
67041;SDS011;53949;47.790;18.750;2022-07-22T13:58:58;4.45;;;3.10;;
67041;SDS011;53949;47.790;18.750;2022-07-22T14:02:02;7.28;;;3.28;;
67041;SDS011;53949;47.790;18.750;2022-07-22T14:05:05;10.02;;;3.70;;
67041;SDS011;53949;47.790;18.750;2022-07-22T14:08:18;4.05;;;3.17;;
67041;SDS011;53949;47.790;18.750;2022-07-22T14:11:36;6.75;;;3.62;;
67041;SDS011;53949;47.790;18.750;2022-07-22T14:14:39;5.45;;;3.28;;
67041;SDS011;53949;47.790;18.750;2022-07-22T14:17:42;7.05;;;3.33;;
67041;SDS011;53949;47.790;18.750;2022-07-22T14:20:46;5.07;;;3.53;;
67041;SDS011;53949;47.790;18.750;2022-07-22T14:23:51;7.60;;;3.50;;
67041;SDS011;53949;47.790;18.750;2022-07-22T14:29:57;4.07;;;2.90;;
67041;SDS011;53949;47.790;18.750;2022-07-22T14:33:00;5.57;;;3.70;;
67041;SDS011;53949;47.790;18.750;2022-07-22T14:36:03;9.02;;;3.45;;
67041;SDS011;53949;47.790;18.750;2022-07-22T14:39:07;7.80;;;3.42;;
67041;SDS011;53949;47.790;18.750;2022-07-22T14:42:11;7.97;;;3.05;;
67041;SDS011;53949;47.790;18.750;2022-07-22T14:45:13;7.00;;;3.40;;
67041;SDS011;53949;47.790;18.750;2022-07-22T14:48:17;8.90;;;3.60;;
67041;SDS011;53949;47.790;18.750;2022-07-22T14:51:20;7.25;;;3.47;;
67041;SDS011;53949;47.790;18.750;2022-07-22T14:54:24;6.97;;;3.67;;
67041;SDS011;53949;47.790;18.750;2022-07-22T14:57:27;10.27;;;3.47;;
67041;SDS011;53949;47.790;18.750;2022-07-22T15:00:30;5.68;;;3.60;;
67041;SDS011;53949;47.790;18.750;2022-07-22T15:03:33;10.35;;;3.90;;
67041;SDS011;53949;47.790;18.750;2022-07-22T15:06:37;7.50;;;3.90;;
67041;SDS011;53949;47.790;18.750;2022-07-22T15:09:40;5.82;;;3.45;;
67041;SDS011;53949;47.790;18.750;2022-07-22T15:12:43;9.90;;;3.28;;
67041;SDS011;53949;47.790;18.750;2022-07-22T15:15:50;7.95;;;3.65;;
67041;SDS011;53949;47.790;18.750;2022-07-22T15:18:54;4.82;;;3.50;;
67041;SDS011;53949;47.790;18.750;2022-07-22T15:21:57;5.97;;;4.07;;
67041;SDS011;53949;47.790;18.750;2022-07-22T15:25:23;5.97;;;3.58;;
67041;SDS011;53949;47.790;18.750;2022-07-22T15:28:25;3.70;;;3.40;;
67041;SDS011;53949;47.790;18.750;2022-07-22T15:31:37;7.55;;;3.87;;
67041;SDS011;53949;47.790;18.750;2022-07-22T15:34:40;7.07;;;3.40;;
67041;SDS011;53949;47.790;18.750;2022-07-22T15:37:43;4.22;;;3.62;;
67041;SDS011;53949;47.790;18.750;2022-07-22T15:40:46;5.62;;;3.87;;
67041;SDS011;53949;47.790;18.750;2022-07-22T15:43:49;4.47;;;3.53;;
67041;SDS011;53949;47.790;18.750;2022-07-22T15:47:02;5.43;;;3.62;;
67041;SDS011;53949;47.790;18.750;2022-07-22T15:50:13;10.23;;;3.62;;
67041;SDS011;53949;47.790;18.750;2022-07-22T15:54:06;4.37;;;3.50;;
67041;SDS011;53949;47.790;18.750;2022-07-22T15:57:10;5.60;;;3.50;;
67041;SDS011;53949;47.790;18.750;2022-07-22T16:00:31;13.10;;;4.05;;
67041;SDS011;53949;47.790;18.750;2022-07-22T16:03:35;7.80;;;3.50;;
67041;SDS011;53949;47.790;18.750;2022-07-22T16:06:41;5.10;;;3.90;;
67041;SDS011;53949;47.790;18.750;2022-07-22T16:09:45;8.77;;;4.03;;
67041;SDS011;53949;47.790;18.750;2022-07-22T16:12:51;6.12;;;3.87;;
67041;SDS011;53949;47.790;18.750;2022-07-22T16:15:55;6.30;;;3.60;;
67041;SDS011;53949;47.790;18.750;2022-07-22T16:23:16;6.70;;;3.70;;
67041;SDS011;53949;47.790;18.750;2022-07-22T16:26:53;6.97;;;3.67;;
67041;SDS011;53949;47.790;18.750;2022-07-22T16:29:59;6.10;;;3.72;;
67041;SDS011;53949;47.790;18.750;2022-07-22T16:41:13;4.97;;;3.72;;
67041;SDS011;53949;47.790;18.750;2022-07-22T16:44:16;4.07;;;3.65;;
67041;SDS011;53949;47.790;18.750;2022-07-22T17:12:55;7.57;;;3.70;;
67041;SDS011;53949;47.790;18.750;2022-07-22T17:16:25;5.15;;;3.28;;
67041;SDS011;53949;47.790;18.750;2022-07-22T17:19:32;5.00;;;3.62;;
67041;SDS011;53949;47.790;18.750;2022-07-22T17:22:38;5.12;;;3.85;;
67041;SDS011;53949;47.790;18.750;2022-07-22T17:45:21;4.25;;;3.40;;
67041;SDS011;53949;47.790;18.750;2022-07-22T17:51:49;7.15;;;3.55;;
67041;SDS011;53949;47.790;18.750;2022-07-22T17:54:58;3.78;;;3.35;;
67041;SDS011;53949;47.790;18.750;2022-07-22T17:58:03;7.55;;;3.58;;
67041;SDS011;53949;47.790;18.750;2022-07-22T18:01:07;8.88;;;3.53;;
67041;SDS011;53949;47.790;18.750;2022-07-22T18:04:13;6.50;;;3.60;;
67041;SDS011;53949;47.790;18.750;2022-07-22T18:07:19;10.93;;;3.92;;
67041;SDS011;53949;47.790;18.750;2022-07-22T18:10:24;7.07;;;3.55;;
67041;SDS011;53949;47.790;18.750;2022-07-22T18:13:27;5.47;;;3.70;;
67041;SDS011;53949;47.790;18.750;2022-07-22T18:16:31;6.53;;;3.78;;
67041;SDS011;53949;47.790;18.750;2022-07-22T18:19:35;8.45;;;3.90;;
67041;SDS011;53949;47.790;18.750;2022-07-22T18:22:39;5.90;;;3.35;;
67041;SDS011;53949;47.790;18.750;2022-07-22T18:25:43;5.80;;;3.60;;
67041;SDS011;53949;47.790;18.750;2022-07-22T18:28:48;4.47;;;3.70;;
67041;SDS011;53949;47.790;18.750;2022-07-22T18:31:52;7.65;;;3.72;;
67041;SDS011;53949;47.790;18.750;2022-07-22T18:34:56;8.07;;;3.80;;
67041;SDS011;53949;47.790;18.750;2022-07-22T18:37:59;8.77;;;3.97;;
67041;SDS011;53949;47.790;18.750;2022-07-22T18:41:05;7.32;;;4.20;;
67041;SDS011;53949;47.790;18.750;2022-07-22T18:44:10;4.72;;;3.65;;
67041;SDS011;53949;47.790;18.750;2022-07-22T18:47:13;3.58;;;3.17;;
67041;SDS011;53949;47.790;18.750;2022-07-22T18:50:16;5.45;;;3.53;;
67041;SDS011;53949;47.790;18.750;2022-07-22T18:53:21;3.87;;;3.47;;
67041;SDS011;53949;47.790;18.750;2022-07-22T18:56:24;7.35;;;3.92;;
67041;SDS011;53949;47.790;18.750;2022-07-22T18:59:27;7.35;;;3.75;;
67041;SDS011;53949;47.790;18.750;2022-07-22T19:02:30;6.62;;;3.85;;
67041;SDS011;53949;47.790;18.750;2022-07-22T19:05:37;4.85;;;3.58;;
67041;SDS011;53949;47.790;18.750;2022-07-22T19:08:40;4.47;;;3.40;;
67041;SDS011;53949;47.790;18.750;2022-07-22T19:11:43;7.12;;;3.47;;
67041;SDS011;53949;47.790;18.750;2022-07-22T19:14:46;6.62;;;3.80;;
67041;SDS011;53949;47.790;18.750;2022-07-22T19:17:56;6.37;;;3.90;;
67041;SDS011;53949;47.790;18.750;2022-07-22T20:10:50;4.05;;;3.25;;
67041;SDS011;53949;47.790;18.750;2022-07-22T21:28:33;7.57;;;4.20;;
67041;SDS011;53949;47.790;18.750;2022-07-22T21:52:53;3.83;;;3.42;;
67041;SDS011;53949;47.790;18.750;2022-07-22T22:09:23;5.75;;;4.22;;
67041;SDS011;53949;47.790;18.750;2022-07-22T22:21:58;9.05;;;4.05;;
67041;SDS011;53949;47.790;18.750;2022-07-22T22:50:53;9.32;;;4.12;;
67041;SDS011;53949;47.790;18.750;2022-07-22T22:54:02;5.78;;;3.75;;
67041;SDS011;53949;47.790;18.750;2022-07-22T22:57:46;4.45;;;4.00;;
67041;SDS011;53949;47.790;18.750;2022-07-22T23:00:51;4.90;;;3.60;;
67041;SDS011;53949;47.790;18.750;2022-07-22T23:13:28;5.62;;;3.58;;
67041;SDS011;53949;47.790;18.750;2022-07-22T23:16:43;4.80;;;3.87;;
